createdAt,value
2019-05-06T00:02:09.870Z,5.63
2019-05-06T00:04:44.708Z,5.39
2019-05-06T00:07:17.080Z,5.39
2019-05-06T00:09:49.860Z,5.52
2019-05-06T00:12:24.005Z,5.27
2019-05-06T00:14:56.816Z,5.55
2019-05-06T00:17:29.385Z,5.38
2019-05-06T00:20:04.123Z,5.28
2019-05-06T00:22:36.176Z,5.50
2019-05-06T00:25:14.088Z,5.28
2019-05-06T00:27:54.296Z,5.53
2019-05-06T00:30:26.487Z,5.39
2019-05-06T00:32:58.836Z,5.38
2019-05-06T00:35:31.444Z,5.50
2019-05-06T00:38:04.499Z,5.27
2019-05-06T00:40:54.775Z,5.62
2019-05-06T00:43:27.414Z,5.46
2019-05-06T00:46:00.770Z,5.22
2019-05-06T00:48:34.098Z,5.43
2019-05-06T00:51:07.198Z,5.24
2019-05-06T00:53:43.915Z,6.28
2019-05-06T00:56:16.595Z,8.48
2019-05-06T00:58:49.154Z,10.18
2019-05-06T01:01:26.977Z,10.41
2019-05-06T01:03:56.254Z,9.73
2019-05-06T01:06:29.056Z,9.15
2019-05-06T01:09:04.596Z,8.63
2019-05-06T01:11:39.121Z,8.12
2019-05-06T01:14:14.812Z,7.71
2019-05-06T01:16:47.745Z,7.29
2019-05-06T01:19:20.185Z,6.89
2019-05-06T01:21:54.014Z,6.53
2019-05-06T01:24:27.205Z,6.18
2019-05-06T01:26:59.940Z,5.86
2019-05-06T01:29:34.622Z,5.53
2019-05-06T01:32:06.845Z,5.25
2019-05-06T01:34:39.330Z,5.55
2019-05-06T01:37:14.270Z,5.32
2019-05-06T01:39:54.184Z,5.72
2019-05-06T01:42:46.870Z,7.56
2019-05-06T01:45:19.965Z,9.63
2019-05-06T01:47:54.339Z,9.94
2019-05-06T01:50:27.035Z,9.28
2019-05-06T01:52:59.795Z,8.70
2019-05-06T01:55:34.211Z,8.17
2019-05-06T01:58:06.873Z,7.66
2019-05-06T02:00:39.661Z,7.24
2019-05-06T02:03:14.730Z,6.83
2019-05-06T02:05:47.259Z,6.45
2019-05-06T02:08:20.000Z,6.07
2019-05-06T02:10:54.555Z,5.73
2019-05-06T02:13:27.185Z,5.38
2019-05-06T02:15:59.875Z,5.43
2019-05-06T02:18:33.970Z,6.77
2019-05-06T02:21:08.485Z,8.71
2019-05-06T02:23:44.148Z,10.35
2019-05-06T02:26:16.926Z,10.49
2019-05-06T02:28:51.095Z,9.74
2019-05-06T02:31:41.586Z,9.08
2019-05-06T02:34:25.900Z,8.46
2019-05-06T02:37:16.375Z,7.89
2019-05-06T02:39:49.126Z,7.38
2019-05-06T02:42:23.937Z,6.91
2019-05-06T02:44:56.218Z,6.49
2019-05-06T02:47:37.256Z,6.05
2019-05-06T02:50:14.616Z,5.66
2019-05-06T02:52:47.301Z,5.32
2019-05-06T02:55:19.853Z,5.59
2019-05-06T02:57:53.635Z,6.77
2019-05-06T03:00:26.732Z,8.73
2019-05-06T03:03:02.730Z,10.32
2019-05-06T03:05:33.825Z,10.39
2019-05-06T03:08:06.480Z,9.65
2019-05-06T03:10:39.236Z,9.03
2019-05-06T03:13:14.240Z,8.48
2019-05-06T03:15:46.445Z,7.93
2019-05-06T03:18:19.250Z,7.39
2019-05-06T03:20:59.903Z,6.94
2019-05-06T03:23:43.312Z,6.48
2019-05-06T03:26:14.529Z,6.04
2019-05-06T03:28:47.156Z,5.70
2019-05-06T03:31:25.307Z,5.34
2019-05-06T03:34:13.207Z,5.50
2019-05-06T03:36:34.918Z,5.39
2019-05-06T03:39:05.762Z,5.38
2019-05-06T03:41:38.872Z,6.94
2019-05-06T03:44:16.286Z,8.94
2019-05-06T03:46:54.432Z,10.60
2019-05-06T03:49:28.790Z,10.63
2019-05-06T03:52:02.788Z,9.93
2019-05-06T03:54:37.295Z,9.29
2019-05-06T03:57:09.898Z,8.81
2019-05-06T03:59:43.557Z,8.39
2019-05-06T04:02:17.796Z,8.03
2019-05-06T04:04:55.824Z,7.74
2019-05-06T04:07:25.280Z,7.38
2019-05-06T04:09:58.014Z,7.11
2019-05-06T04:12:33.668Z,6.87
2019-05-06T04:15:07.792Z,6.60
2019-05-06T04:17:43.803Z,6.38
2019-05-06T04:20:16.977Z,6.18
2019-05-06T04:22:53.256Z,6.01
2019-05-06T04:25:44.800Z,5.93
2019-05-06T04:28:19.100Z,5.90
2019-05-06T04:30:54.564Z,5.97
2019-05-06T04:33:27.123Z,7.49
2019-05-06T04:36:03.393Z,9.98
2019-05-06T04:38:35.335Z,10.79
2019-05-06T04:41:08.141Z,10.56
2019-05-06T04:43:43.619Z,10.36
2019-05-06T04:46:16.935Z,10.25
2019-05-06T04:48:49.727Z,10.28
2019-05-06T04:51:24.791Z,10.36
2019-05-06T04:53:57.389Z,10.60
2019-05-06T04:56:33.174Z,10.96
2019-05-06T04:59:06.240Z,11.08
2019-05-06T05:01:39.545Z,11.25
2019-05-06T05:04:24.658Z,11.45
2019-05-06T05:06:48.136Z,11.72
2019-05-06T05:09:23.083Z,12.01
2019-05-06T05:11:58.158Z,12.34
2019-05-06T05:14:38.335Z,12.70
2019-05-06T05:17:28.020Z,13.18
2019-05-06T05:20:02.127Z,13.66
2019-05-06T05:22:35.730Z,14.01
2019-05-06T05:25:09.075Z,14.35
2019-05-06T05:27:42.190Z,14.72
2019-05-06T05:30:15.760Z,15.00
2019-05-06T05:32:49.086Z,15.24
2019-05-06T05:35:22.719Z,15.44
2019-05-06T05:37:56.949Z,15.55
2019-05-06T05:40:32.068Z,15.73
2019-05-06T05:43:09.081Z,15.85
2019-05-06T05:45:42.411Z,16.00
2019-05-06T05:48:28.810Z,16.12
2019-05-06T05:51:03.285Z,16.21
2019-05-06T05:53:36.064Z,16.28
2019-05-06T05:56:09.261Z,16.35
2019-05-06T05:58:42.527Z,16.45
2019-05-06T06:01:15.228Z,16.47
2019-05-06T06:03:48.125Z,16.51
2019-05-06T06:06:22.160Z,16.56
2019-05-06T06:08:56.540Z,16.62
2019-05-06T06:11:33.389Z,16.66
2019-05-06T06:14:07.758Z,16.69
2019-05-06T06:16:42.320Z,16.72
2019-05-06T06:19:22.129Z,16.71
2019-05-06T06:21:56.537Z,16.68
2019-05-06T06:24:32.229Z,16.69
2019-05-06T06:27:05.859Z,16.68
2019-05-06T06:29:38.374Z,16.66
2019-05-06T06:32:27.936Z,16.65
2019-05-06T06:35:11.487Z,16.58
2019-05-06T06:37:53.220Z,16.54
2019-05-06T06:40:26.800Z,16.47
2019-05-06T06:43:02.206Z,16.35
2019-05-06T06:45:35.650Z,16.27
2019-05-06T06:48:08.630Z,16.24
2019-05-06T06:50:42.643Z,16.17
2019-05-06T06:53:15.596Z,16.05
2019-05-06T06:55:48.325Z,16.05
2019-05-06T06:58:26.296Z,15.97
2019-05-06T07:01:03.139Z,15.90
2019-05-06T07:03:39.295Z,15.85
2019-05-06T07:06:23.819Z,15.85
2019-05-06T07:08:56.697Z,15.85
2019-05-06T07:11:29.515Z,15.90
2019-05-06T07:14:02.716Z,15.93
2019-05-06T07:16:35.409Z,15.94
2019-05-06T07:19:08.230Z,15.94
2019-05-06T07:21:43.544Z,15.88
2019-05-06T07:24:16.330Z,15.85
2019-05-06T07:26:53.550Z,15.88
2019-05-06T07:29:26.729Z,15.93
2019-05-06T07:31:59.835Z,15.93
2019-05-06T07:34:32.286Z,15.94
2019-05-06T07:37:04.685Z,15.97
2019-05-06T07:39:38.355Z,16.09
2019-05-06T07:42:22.712Z,16.17
2019-05-06T07:45:06.420Z,16.28
2019-05-06T07:47:42.631Z,16.38
2019-05-06T07:50:15.765Z,16.43
2019-05-06T07:53:02.379Z,16.35
2019-05-06T07:55:35.115Z,16.28
2019-05-06T07:58:08.108Z,16.24
2019-05-06T08:00:42.300Z,16.26
2019-05-06T08:03:14.980Z,16.26
2019-05-06T08:05:57.503Z,16.30
2019-05-06T08:08:23.066Z,16.34
2019-05-06T08:10:55.655Z,16.43
2019-05-06T08:13:27.936Z,16.54
2019-05-06T08:16:02.271Z,16.56
2019-05-06T08:18:34.575Z,16.62
2019-05-06T08:21:08.535Z,16.64
2019-05-06T08:23:42.887Z,16.66
2019-05-06T08:26:17.792Z,16.72
2019-05-06T08:28:52.615Z,16.73
2019-05-06T08:31:25.015Z,16.75
2019-05-06T08:33:57.556Z,16.82
2019-05-06T08:36:42.634Z,16.89
2019-05-06T08:39:15.555Z,16.98
2019-05-06T08:41:48.255Z,17.00
2019-05-06T08:44:22.479Z,17.03
2019-05-06T08:46:55.297Z,17.00
2019-05-06T08:49:29.275Z,16.93
2019-05-06T08:52:03.177Z,16.95
2019-05-06T08:54:37.875Z,16.96
2019-05-06T08:57:11.903Z,17.03
2019-05-06T08:59:44.485Z,16.96
2019-05-06T09:02:17.515Z,16.92
2019-05-06T09:04:51.815Z,16.92
2019-05-06T09:07:24.296Z,16.86
2019-05-06T09:09:56.936Z,16.78
2019-05-06T09:12:29.595Z,16.65
2019-05-06T09:15:03.505Z,16.61
2019-05-06T09:17:37.594Z,16.52
2019-05-06T09:20:12.901Z,16.43
2019-05-06T09:22:44.895Z,16.31
2019-05-06T09:25:17.595Z,16.24
2019-05-06T09:27:52.668Z,16.19
2019-05-06T09:30:43.072Z,16.09
2019-05-06T09:33:16.454Z,16.06
2019-05-06T09:35:49.195Z,16.00
2019-05-06T09:38:22.842Z,15.96
2019-05-06T09:40:55.407Z,15.90
2019-05-06T09:43:28.316Z,15.80
2019-05-06T09:46:03.555Z,15.72
2019-05-06T09:48:42.443Z,15.66
2019-05-06T09:51:15.355Z,15.57
2019-05-06T09:54:08.156Z,15.50
2019-05-06T09:56:58.798Z,15.38
2019-05-06T09:59:32.173Z,15.25
2019-05-06T10:02:05.608Z,15.25
2019-05-06T10:04:38.935Z,15.23
2019-05-06T10:07:14.295Z,15.15
2019-05-06T10:09:46.715Z,15.14
2019-05-06T10:12:19.781Z,15.11
2019-05-06T10:14:53.211Z,15.15
2019-05-06T10:17:25.903Z,15.15
2019-05-06T10:19:58.795Z,15.14
2019-05-06T10:22:32.438Z,15.14
2019-05-06T10:25:06.496Z,15.18
2019-05-06T10:27:42.212Z,15.21
2019-05-06T10:30:17.616Z,15.24
2019-05-06T10:32:52.886Z,15.20
2019-05-06T10:35:29.169Z,15.15
2019-05-06T10:38:32.815Z,15.15
2019-05-06T10:41:22.483Z,15.17
2019-05-06T10:44:42.787Z,15.18
2019-05-06T10:47:14.355Z,15.20
2019-05-06T10:49:46.857Z,15.20
2019-05-06T10:52:24.134Z,15.31
2019-05-06T10:54:57.135Z,15.40
2019-05-06T10:57:32.825Z,15.41
2019-05-06T11:00:07.866Z,15.41
2019-05-06T11:02:45.975Z,15.48
2019-05-06T11:05:19.111Z,15.48
2019-05-06T11:07:52.677Z,15.48
2019-05-06T11:10:29.528Z,15.41
2019-05-06T11:12:59.114Z,15.33
2019-05-06T11:15:33.025Z,15.27
2019-05-06T11:18:06.215Z,15.18
2019-05-06T11:20:40.093Z,15.10
2019-05-06T11:23:14.144Z,15.03
2019-05-06T11:25:46.536Z,14.92
2019-05-06T11:28:36.475Z,14.83
2019-05-06T11:31:09.374Z,14.72
2019-05-06T11:33:52.596Z,14.64
2019-05-06T11:36:29.496Z,14.58
2019-05-06T11:39:07.600Z,14.55
2019-05-06T11:41:56.487Z,14.51
2019-05-06T11:44:14.475Z,14.51
2019-05-06T11:46:46.895Z,14.51
2019-05-06T11:49:20.325Z,14.52
2019-05-06T11:51:52.599Z,14.56
2019-05-06T11:54:25.137Z,14.61
2019-05-06T11:56:58.578Z,14.65
2019-05-06T11:59:31.335Z,14.69
2019-05-06T12:02:08.275Z,14.79
2019-05-06T12:04:41.940Z,14.89
2019-05-06T12:07:15.699Z,14.97
2019-05-06T12:09:48.826Z,15.02
2019-05-06T12:12:23.343Z,15.09
2019-05-06T12:14:55.675Z,15.18
2019-05-06T12:17:28.035Z,15.25
2019-05-06T12:20:02.990Z,15.33
2019-05-06T12:22:37.795Z,15.37
2019-05-06T12:25:15.301Z,15.44
2019-05-06T12:27:49.495Z,15.50
2019-05-06T12:30:24.556Z,15.59
2019-05-06T12:33:03.238Z,15.64
2019-05-06T12:35:37.835Z,15.66
2019-05-06T12:38:26.708Z,15.68
2019-05-06T12:40:48.895Z,15.72
2019-05-06T12:43:24.436Z,15.73
2019-05-06T12:46:02.960Z,15.76
2019-05-06T12:48:43.972Z,15.78
2019-05-06T12:51:16.916Z,15.79
2019-05-06T12:53:49.395Z,15.86
2019-05-06T12:56:24.395Z,15.86
2019-05-06T12:58:57.315Z,15.82
2019-05-06T13:01:33.496Z,15.86
2019-05-06T13:04:04.831Z,15.89
2019-05-06T13:06:37.565Z,15.94
2019-05-06T13:09:12.420Z,15.99
2019-05-06T13:11:44.055Z,15.99
2019-05-06T13:14:16.500Z,15.94
2019-05-06T13:16:49.137Z,15.94
2019-05-06T13:19:22.815Z,15.94
2019-05-06T13:21:55.659Z,15.97
2019-05-06T13:24:28.156Z,16.01
2019-05-06T13:27:02.608Z,16.06
2019-05-06T13:29:35.713Z,16.10
2019-05-06T13:32:12.674Z,16.19
2019-05-06T13:34:44.958Z,16.31
2019-05-06T13:37:17.842Z,16.41
2019-05-06T13:39:52.768Z,16.51
2019-05-06T13:42:27.055Z,16.62
2019-05-06T13:44:59.456Z,16.71
2019-05-06T13:47:43.776Z,16.75
2019-05-06T13:50:22.910Z,16.79
2019-05-06T13:53:08.041Z,16.83
2019-05-06T13:55:31.096Z,16.88
2019-05-06T13:58:03.761Z,16.95
2019-05-06T14:00:37.015Z,17.03
2019-05-06T14:03:09.535Z,17.10
2019-05-06T14:05:42.579Z,17.13
2019-05-06T14:08:15.186Z,17.16
2019-05-06T14:10:56.796Z,17.14
2019-05-06T14:13:22.099Z,17.07
2019-05-06T14:15:54.675Z,16.96
2019-05-06T14:18:28.075Z,16.89
2019-05-06T14:21:02.919Z,16.80
2019-05-06T14:23:34.835Z,16.68
2019-05-06T14:26:07.415Z,16.61
2019-05-06T14:28:43.041Z,16.55
2019-05-06T14:31:17.185Z,16.56
2019-05-06T14:33:52.095Z,16.55
2019-05-06T14:36:27.542Z,16.52
2019-05-06T14:38:58.936Z,16.51
2019-05-06T14:41:32.747Z,16.50
2019-05-06T14:44:07.511Z,16.50
2019-05-06T14:46:57.192Z,16.44
2019-05-06T14:49:32.377Z,16.37
2019-05-06T14:52:06.054Z,16.26
2019-05-06T14:54:49.485Z,16.20
2019-05-06T14:57:22.928Z,16.16
2019-05-06T14:59:55.970Z,16.10
2019-05-06T15:02:28.917Z,16.07
2019-05-06T15:05:02.988Z,16.01
2019-05-06T15:07:35.965Z,15.96
2019-05-06T15:10:20.311Z,15.89
2019-05-06T15:12:43.591Z,15.80
2019-05-06T15:15:16.939Z,15.75
2019-05-06T15:17:49.476Z,15.66
2019-05-06T15:20:23.027Z,15.61
2019-05-06T15:22:56.360Z,15.52
2019-05-06T15:25:28.985Z,15.44
2019-05-06T15:28:02.545Z,15.37
2019-05-06T15:30:46.080Z,15.27
2019-05-06T15:33:22.465Z,15.13
2019-05-06T15:35:59.506Z,14.99
2019-05-06T15:38:32.603Z,14.89
2019-05-06T15:41:05.411Z,14.82
2019-05-06T15:43:38.250Z,14.71
2019-05-06T15:46:12.217Z,14.62
2019-05-06T15:48:45.030Z,14.48
2019-05-06T15:51:19.220Z,14.38
2019-05-06T15:53:52.961Z,14.28
2019-05-06T15:56:25.881Z,14.16
2019-05-06T15:58:58.310Z,14.08
2019-05-06T16:01:33.213Z,14.04
2019-05-06T16:04:05.499Z,14.01
2019-05-06T16:06:38.355Z,13.97
2019-05-06T16:09:14.219Z,13.99
2019-05-06T16:11:45.155Z,13.94
2019-05-06T16:14:17.585Z,13.93
2019-05-06T16:16:52.677Z,13.92
2019-05-06T16:19:24.964Z,13.93
2019-05-06T16:21:57.989Z,13.90
2019-05-06T16:24:35.244Z,13.90
2019-05-06T16:27:07.949Z,13.88
2019-05-06T16:29:42.888Z,13.83
2019-05-06T16:32:16.740Z,13.78
2019-05-06T16:34:49.816Z,13.72
2019-05-06T16:37:22.453Z,13.65
2019-05-06T16:39:55.015Z,13.61
2019-05-06T16:42:27.861Z,13.52
2019-05-06T16:45:06.963Z,13.46
2019-05-06T16:47:37.656Z,13.37
2019-05-06T16:50:17.375Z,13.32
2019-05-06T16:52:52.341Z,13.23
2019-05-06T16:55:28.899Z,13.15
2019-05-06T16:58:06.265Z,13.10
2019-05-06T17:00:38.870Z,13.02
2019-05-06T17:03:14.593Z,12.94
2019-05-06T17:05:52.002Z,12.86
2019-05-06T17:08:24.995Z,12.79
2019-05-06T17:10:57.786Z,12.72
2019-05-06T17:13:31.078Z,12.67
2019-05-06T17:16:03.789Z,12.59
2019-05-06T17:18:36.490Z,12.52
2019-05-06T17:21:09.201Z,12.48
2019-05-06T17:23:42.319Z,12.42
2019-05-06T17:26:15.076Z,12.37
2019-05-06T17:28:49.216Z,12.27
2019-05-06T17:31:37.135Z,12.23
2019-05-06T17:34:12.823Z,12.16
2019-05-06T17:36:46.047Z,12.05
2019-05-06T17:39:18.660Z,12.00
2019-05-06T17:41:52.192Z,11.91
2019-05-06T17:44:25.290Z,11.83
2019-05-06T17:47:02.653Z,11.79
2019-05-06T17:49:37.045Z,11.69
2019-05-06T17:52:14.226Z,11.59
2019-05-06T17:54:46.786Z,11.53
2019-05-06T17:57:19.440Z,11.44
2019-05-06T17:59:52.824Z,11.35
2019-05-06T18:02:27.202Z,11.28
2019-05-06T18:04:59.680Z,11.19
2019-05-06T18:07:32.785Z,11.10
2019-05-06T18:10:06.200Z,10.98
2019-05-06T18:12:38.956Z,10.87
2019-05-06T18:15:13.377Z,10.76
2019-05-06T18:17:46.244Z,10.68
2019-05-06T18:20:19.125Z,10.56
2019-05-06T18:22:52.502Z,10.45
2019-05-06T18:25:25.435Z,10.35
2019-05-06T18:27:58.005Z,10.22
2019-05-06T18:30:34.289Z,10.14
2019-05-06T18:33:05.287Z,10.01
2019-05-06T18:35:37.965Z,9.90
2019-05-06T18:38:10.505Z,9.82
2019-05-06T18:40:43.175Z,9.73
2019-05-06T18:43:15.905Z,9.63
2019-05-06T18:45:48.815Z,9.53
2019-05-06T18:48:22.440Z,9.45
2019-05-06T18:50:55.175Z,9.34
2019-05-06T18:53:28.945Z,9.24
2019-05-06T18:56:03.116Z,9.14
2019-05-06T18:58:36.030Z,9.04
2019-05-06T19:01:08.966Z,8.94
2019-05-06T19:03:46.461Z,8.87
2019-05-06T19:06:19.035Z,8.80
2019-05-06T19:09:02.629Z,8.71
2019-05-06T19:11:37.070Z,8.64
2019-05-06T19:14:09.656Z,8.59
2019-05-06T19:16:49.854Z,8.52
2019-05-06T19:19:16.695Z,8.42
2019-05-06T19:21:49.225Z,8.39
2019-05-06T19:24:22.669Z,8.32
2019-05-06T19:26:55.474Z,8.25
2019-05-06T19:29:28.300Z,8.20
2019-05-06T19:32:03.037Z,8.12
2019-05-06T19:34:36.240Z,8.08
2019-05-06T19:37:09.132Z,8.03
2019-05-06T19:39:43.120Z,7.97
2019-05-06T19:42:16.105Z,7.94
2019-05-06T19:44:48.806Z,7.90
2019-05-06T19:47:21.431Z,7.84
2019-05-06T19:49:54.290Z,7.82
2019-05-06T19:52:26.926Z,7.79
2019-05-06T19:55:02.924Z,7.73
2019-05-06T19:57:34.804Z,7.67
2019-05-06T20:00:09.080Z,7.67
2019-05-06T20:02:42.936Z,7.69
2019-05-06T20:05:17.505Z,7.69
2019-05-06T20:07:52.230Z,7.69
2019-05-06T20:10:26.529Z,7.69
2019-05-06T20:13:05.276Z,7.70
2019-05-06T20:15:39.055Z,7.70
2019-05-06T20:18:12.894Z,7.73
2019-05-06T20:20:45.685Z,7.79
2019-05-06T20:23:18.215Z,7.80
2019-05-06T20:25:51.926Z,7.83
2019-05-06T20:28:24.795Z,7.86
2019-05-06T20:30:57.585Z,7.87
2019-05-06T20:33:32.539Z,7.92
2019-05-06T20:36:04.499Z,7.94
2019-05-06T20:38:37.151Z,7.98
2019-05-06T20:41:09.745Z,8.03
2019-05-06T20:43:42.413Z,8.04
2019-05-06T20:46:15.020Z,8.07
2019-05-06T20:48:47.680Z,8.12
2019-05-06T20:51:21.957Z,8.15
2019-05-06T20:53:54.745Z,8.17
2019-05-06T20:56:27.521Z,8.20
2019-05-06T20:59:02.381Z,8.20
2019-05-06T21:01:34.880Z,8.20
2019-05-06T21:04:07.600Z,8.24
2019-05-06T21:06:42.418Z,8.25
2019-05-06T21:09:14.800Z,8.25
2019-05-06T21:11:47.510Z,8.28
2019-05-06T21:14:22.551Z,8.29
2019-05-06T21:16:54.720Z,8.28
2019-05-06T21:19:27.541Z,8.29
2019-05-06T21:22:02.182Z,8.27
2019-05-06T21:24:36.196Z,8.25
2019-05-06T21:27:08.821Z,8.29
2019-05-06T21:29:42.104Z,8.21
2019-05-06T21:32:14.775Z,8.20
2019-05-06T21:34:47.360Z,8.18
2019-05-06T21:37:20.461Z,8.12
2019-05-06T21:39:53.050Z,8.10
2019-05-06T21:42:25.740Z,8.05
2019-05-06T21:44:58.500Z,8.00
2019-05-06T21:47:32.542Z,7.94
2019-05-06T21:50:05.860Z,7.92
2019-05-06T21:52:42.272Z,7.86
2019-05-06T21:55:14.799Z,7.77
2019-05-06T21:57:47.074Z,7.70
2019-05-06T22:00:23.382Z,7.65
2019-05-06T22:02:57.870Z,7.57
2019-05-06T22:05:32.073Z,7.52
2019-05-06T22:08:04.900Z,7.46
2019-05-06T22:10:37.860Z,7.39
2019-05-06T22:13:12.596Z,7.36
2019-05-06T22:15:44.509Z,7.31
2019-05-06T22:18:17.045Z,7.29
2019-05-06T22:21:07.145Z,7.24
2019-05-06T22:23:55.418Z,7.21
2019-05-06T22:26:29.049Z,7.15
2019-05-06T22:29:02.159Z,7.15
2019-05-06T22:31:34.840Z,7.11
2019-05-06T22:34:07.665Z,7.08
2019-05-06T22:36:39.949Z,7.08
2019-05-06T22:39:13.566Z,7.07
2019-05-06T22:41:46.095Z,7.06
2019-05-06T22:44:18.780Z,7.04
2019-05-06T22:46:51.549Z,7.01
2019-05-06T22:49:24.824Z,6.98
2019-05-06T22:51:57.373Z,6.94
2019-05-06T22:54:31.976Z,6.91
2019-05-06T22:57:04.056Z,6.86
2019-05-06T22:59:36.975Z,6.80
2019-05-06T23:02:09.350Z,6.76
2019-05-06T23:04:43.618Z,6.70
2019-05-06T23:07:16.350Z,6.65
2019-05-06T23:09:49.500Z,6.62
2019-05-06T23:12:23.149Z,6.56
2019-05-06T23:14:55.717Z,6.49
2019-05-06T23:17:28.431Z,7.66
2019-05-06T23:20:02.322Z,9.73
2019-05-06T23:22:35.286Z,11.70
2019-05-06T23:25:08.740Z,12.13
2019-05-06T23:27:43.887Z,11.58
2019-05-06T23:30:15.730Z,11.08
2019-05-06T23:32:48.125Z,10.68
2019-05-06T23:35:21.995Z,10.32
2019-05-06T23:38:49.050Z,9.98
2019-05-06T23:42:16.194Z,9.53
2019-05-06T23:45:42.876Z,9.10
2019-05-06T23:49:09.759Z,8.71
2019-05-06T23:52:36.635Z,8.31
2019-05-06T23:56:04.080Z,7.96
2019-05-06T23:58:36.625Z,7.63
